Time;durP1;ratioP1;P1;durP2;ratioP2;P2;SDS_P1;SDS_P2;PMS_P1;PMS_P2;Temp;Humidity;BMP_temperature;BMP_pressure;BME280_temperature;BME280_humidity;BME280_pressure;Samples;Min_cycle;Max_cycle;Signal;HPM_P1;HPM_P2
2023/04/24 03:50:58;;;;;;;14.47;8.63;;;;;;;11.77;100.00;99538.19;6267963;27;20074;31
2023/04/24 03:54:02;;;;;;;13.10;8.32;;;;;;;11.77;100.00;99532.78;5269819;33;33124;-91
2023/04/24 03:57:05;;;;;;;17.12;8.20;;;;;;;11.83;100.00;99526.56;5260597;33;33245;-92
2023/04/24 04:00:11;;;;;;;14.38;8.35;;;;;;;11.78;100.00;99529.88;5271953;33;35170;-89
2023/04/24 04:03:16;;;;;;;12.60;9.05;;;;;;;11.82;100.00;99541.09;5283319;33;34656;-88
2023/04/24 04:06:21;;;;;;;11.80;8.27;;;;;;;11.84;100.00;99536.31;5271379;33;34285;-88
2023/04/24 04:09:24;;;;;;;13.32;8.68;;;;;;;11.86;100.00;99536.97;5282853;33;33839;-88
2023/04/24 04:12:27;;;;;;;11.73;8.63;;;;;;;11.83;100.00;99534.66;5272286;33;34195;-88
2023/04/24 04:15:30;;;;;;;15.43;8.68;;;;;;;11.89;100.00;99531.16;5271392;33;34509;-88
2023/04/24 04:18:33;;;;;;;10.23;8.30;;;;;;;11.96;100.00;99526.63;5272736;33;34744;-88
2023/04/24 04:21:36;;;;;;;14.95;8.65;;;;;;;12.02;100.00;99530.31;5273627;33;33932;-88
2023/04/24 04:24:40;;;;;;;13.52;8.75;;;;;;;12.11;100.00;99525.56;5272105;33;33465;-88
2023/04/24 04:27:43;;;;;;;12.95;8.57;;;;;;;12.16;100.00;99536.56;5260325;33;34369;-88
2023/04/24 04:30:48;;;;;;;13.02;9.15;;;;;;;12.23;100.00;99534.69;5283453;33;33420;-88
2023/04/24 04:33:51;;;;;;;14.30;9.32;;;;;;;12.34;100.00;99538.59;5271397;33;33757;-88
2023/04/24 04:37:00;;;;;;;11.77;8.80;;;;;;;12.40;100.00;99533.22;5272659;33;34646;-88
2023/04/24 04:40:06;;;;;;;10.00;8.43;;;;;;;12.43;100.00;99532.78;5272939;33;33375;-88
2023/04/24 04:43:10;;;;;;;15.75;9.68;;;;;;;12.55;100.00;99526.72;5283691;33;33966;-88
2023/04/24 04:46:15;;;;;;;13.65;8.85;;;;;;;12.58;100.00;99529.03;5273021;33;33916;-87
2023/04/24 04:49:21;;;;;;;12.77;8.27;;;;;;;12.59;100.00;99533.38;5284107;33;34063;-88
2023/04/24 04:52:26;;;;;;;13.82;8.88;;;;;;;12.61;100.00;99517.81;5279513;33;34562;-88
2023/04/24 04:55:30;;;;;;;14.50;9.10;;;;;;;12.63;100.00;99534.59;5287906;33;34207;-88
2023/04/24 04:58:35;;;;;;;13.80;8.85;;;;;;;12.52;100.00;99529.84;5286348;33;35401;-88
2023/04/24 05:01:39;;;;;;;13.75;9.20;;;;;;;12.55;100.00;99524.03;5275634;33;34933;-88
2023/04/24 05:04:42;;;;;;;11.68;9.02;;;;;;;12.57;100.00;99509.28;5272911;33;33858;-88
2023/04/24 05:07:45;;;;;;;13.30;9.18;;;;;;;12.53;100.00;99504.53;5279348;33;34016;-88
2023/04/24 05:10:48;;;;;;;12.27;8.95;;;;;;;12.63;100.00;99516.53;5277525;33;33603;-88
2023/04/24 05:13:51;;;;;;;12.98;8.55;;;;;;;12.71;100.00;99521.69;5273269;33;33596;-88
2023/04/24 05:16:54;;;;;;;13.93;8.93;;;;;;;12.93;100.00;99516.03;5259972;33;33817;-87
2023/04/24 05:19:57;;;;;;;17.62;9.48;;;;;;;12.96;100.00;99514.75;5272954;33;33652;-88
2023/04/24 05:23:00;;;;;;;12.15;9.30;;;;;;;13.06;100.00;99515.13;5261678;33;34240;-88
2023/04/24 05:26:04;;;;;;;13.02;8.88;;;;;;;13.15;100.00;99517.34;5272263;33;33520;-88
2023/04/24 05:29:09;;;;;;;13.93;9.27;;;;;;;13.32;98.17;99519.59;5260748;33;33664;-88
2023/04/24 05:32:12;;;;;;;13.48;8.82;;;;;;;13.46;99.54;99520.34;5265171;33;33782;-87
2023/04/24 05:35:15;;;;;;;16.40;9.23;;;;;;;13.70;95.91;99522.25;5276974;33;34733;-88
2023/04/24 05:38:19;;;;;;;12.37;8.00;;;;;;;13.89;93.75;99512.31;5234620;33;33464;-88
2023/04/24 05:41:22;;;;;;;13.07;9.45;;;;;;;14.04;90.06;99507.44;5240985;33;34578;-88
2023/04/24 05:44:25;;;;;;;21.05;8.70;;;;;;;13.99;92.80;99520.78;5268342;33;34626;-88
2023/04/24 05:47:29;;;;;;;14.43;8.40;;;;;;;13.87;94.28;99527.16;5258913;33;33822;-88
2023/04/24 05:50:35;;;;;;;12.27;7.87;;;;;;;13.70;94.93;99529.56;5259708;33;35460;-91
2023/04/24 05:53:39;;;;;;;12.05;8.25;;;;;;;13.61;92.54;99526.28;5263640;33;34226;-92
2023/04/24 05:56:42;;;;;;;14.32;8.05;;;;;;;13.69;90.24;99522.47;5262903;33;34592;-88
2023/04/24 05:59:46;;;;;;;11.90;8.10;;;;;;;13.71;91.33;99529.31;5263331;33;33720;-88
2023/04/24 06:02:49;;;;;;;11.73;8.13;;;;;;;13.83;90.03;99524.03;5251801;33;34341;-88
2023/04/24 06:05:53;;;;;;;11.43;7.75;;;;;;;14.06;89.25;99520.72;5251507;33;33949;-88
2023/04/24 06:08:56;;;;;;;12.45;7.37;;;;;;;14.31;87.84;99514.47;5264920;33;32985;-88
2023/04/24 06:12:00;;;;;;;9.75;7.22;;;;;;;14.46;84.51;99514.94;5251480;33;33617;-88
2023/04/24 06:15:04;;;;;;;12.07;7.72;;;;;;;14.46;84.32;99520.34;5261884;33;34156;-88
2023/04/24 06:18:10;;;;;;;11.57;8.02;;;;;;;14.61;83.53;99526.25;5249073;33;33619;-88
2023/04/24 06:21:13;;;;;;;13.30;8.35;;;;;;;14.62;83.44;99522.47;5260837;33;33493;-88
2023/04/24 06:24:16;;;;;;;10.30;8.05;;;;;;;14.79;83.36;99521.91;5245728;33;33846;-88
2023/04/24 06:27:19;;;;;;;15.00;8.30;;;;;;;15.05;81.68;99528.87;5261324;33;33935;-88
2023/04/24 06:30:22;;;;;;;11.98;7.87;;;;;;;15.11;81.17;99519.84;5263934;33;33919;-88
2023/04/24 06:33:25;;;;;;;11.85;8.32;;;;;;;15.11;82.83;99527.97;5262694;33;34580;-88
2023/04/24 06:36:29;;;;;;;11.88;7.35;;;;;;;14.98;80.56;99518.13;5250261;33;33532;-88
2023/04/24 06:39:32;;;;;;;12.73;8.13;;;;;;;14.82;84.13;99527.69;5264655;33;33489;-88
2023/04/24 06:42:35;;;;;;;10.43;8.30;;;;;;;14.23;89.82;99527.22;5262271;33;33546;-88
2023/04/24 06:45:39;;;;;;;15.80;8.27;;;;;;;13.67;95.34;99522.69;5263195;33;33917;-88
2023/04/24 06:48:44;;;;;;;21.05;9.20;;;;;;;13.45;100.00;99522.22;5258170;33;33794;-88
2023/04/24 06:51:47;;;;;;;13.48;8.30;;;;;;;13.36;100.00;99518.94;5261605;33;33861;-88
2023/04/24 06:54:50;;;;;;;13.38;8.90;;;;;;;13.39;100.00;99525.78;5249339;33;33896;-88
2023/04/24 06:57:52;;;;;;;14.10;9.43;;;;;;;13.59;100.00;99521.06;5264891;33;34620;-88
2023/04/24 07:00:55;;;;;;;12.25;9.30;;;;;;;13.97;97.83;99516.62;5240613;33;34150;-88
2023/04/24 07:03:59;;;;;;;15.32;8.93;;;;;;;14.27;98.01;99522.19;5251815;33;34067;-88
2023/04/24 07:07:02;;;;;;;14.27;8.95;;;;;;;14.39;94.33;99525.00;5265662;33;33612;-88
2023/04/24 07:10:05;;;;;;;13.13;8.07;;;;;;;14.24;98.10;99523.50;5262803;33;33279;-88
2023/04/24 07:13:09;;;;;;;9.23;7.32;;;;;;;14.26;94.53;99513.25;5264313;33;34564;-87
2023/04/24 07:16:11;;;;;;;10.70;7.78;;;;;;;14.40;90.88;99522.06;5261852;33;33811;-88
2023/04/24 07:19:15;;;;;;;11.02;7.60;;;;;;;14.33;91.83;99518.59;5261426;33;34931;-87
2023/04/24 07:22:17;;;;;;;11.88;8.10;;;;;;;14.57;91.69;99513.41;5260427;33;35181;-88
2023/04/24 07:25:20;;;;;;;13.70;7.80;;;;;;;14.69;90.42;99523.25;5265945;33;34018;-88
2023/04/24 07:28:23;;;;;;;11.18;7.93;;;;;;;14.85;89.98;99510.16;5249545;33;33445;-87
2023/04/24 07:31:26;;;;;;;12.95;8.73;;;;;;;14.88;89.35;99518.66;5261591;33;33903;-88
2023/04/24 07:34:29;;;;;;;16.27;8.88;;;;;;;15.15;85.60;99524.59;5232627;33;34221;-88
2023/04/24 07:37:32;;;;;;;12.60;8.15;;;;;;;15.35;86.92;99526.19;5249696;33;33488;-88
2023/04/24 07:40:35;;;;;;;10.82;7.55;;;;;;;15.50;86.12;99517.62;5236420;33;33274;-88
2023/04/24 07:43:38;;;;;;;11.55;8.75;;;;;;;15.58;82.31;99525.44;5259681;33;33782;-88
2023/04/24 07:46:41;;;;;;;13.30;8.20;;;;;;;15.38;84.53;99514.88;5264075;33;34124;-88
2023/04/24 07:49:44;;;;;;;11.52;8.25;;;;;;;15.49;85.40;99516.78;5252541;33;33809;-88
2023/04/24 07:52:47;;;;;;;12.52;7.43;;;;;;;15.57;86.58;99513.75;5259242;33;33925;-88
2023/04/24 07:55:50;;;;;;;9.95;7.47;;;;;;;15.40;84.25;99518.19;5243119;33;33923;-88
2023/04/24 07:58:53;;;;;;;11.00;7.50;;;;;;;15.56;85.42;99513.97;5242654;33;34538;-88
2023/04/24 08:01:56;;;;;;;10.73;7.82;;;;;;;15.28;85.55;99514.59;5249166;33;33990;-87
2023/04/24 08:04:59;;;;;;;12.30;8.05;;;;;;;15.59;84.24;99513.50;5236492;33;33405;-87
2023/04/24 08:08:02;;;;;;;10.63;7.65;;;;;;;15.90;86.51;99512.44;5241247;33;34982;-91
2023/04/24 08:11:05;;;;;;;10.98;7.47;;;;;;;16.09;83.08;99519.44;5250500;33;34992;-91
2023/04/24 08:14:08;;;;;;;12.48;7.62;;;;;;;16.39;81.66;99515.78;5245061;33;33898;-92
2023/04/24 08:17:11;;;;;;;10.63;7.85;;;;;;;16.16;82.66;99507.63;5238216;33;34213;-92
2023/04/24 08:20:13;;;;;;;12.90;7.53;;;;;;;15.98;83.62;99514.00;5251769;33;33744;-88
2023/04/24 08:23:16;;;;;;;10.95;8.07;;;;;;;15.93;85.71;99511.97;5256232;33;34725;-88
2023/04/24 08:26:19;;;;;;;9.75;7.60;;;;;;;15.99;85.28;99507.50;5254032;33;34830;-89
2023/04/24 08:29:22;;;;;;;10.27;8.02;;;;;;;16.28;83.21;99505.72;5279675;33;34945;-87
2023/04/24 08:32:29;;;;;;;10.32;7.68;;;;;;;16.24;85.43;99510.81;5252780;33;33715;-88
2023/04/24 08:35:32;;;;;;;11.25;7.90;;;;;;;16.21;84.38;99503.16;5256963;33;34534;-88
2023/04/24 08:38:35;;;;;;;11.00;8.40;;;;;;;16.25;84.82;99504.31;5252695;33;33557;-88
2023/04/24 08:41:42;;;;;;;10.82;7.85;;;;;;;16.12;83.93;99511.84;5244301;33;33779;-88
2023/04/24 08:44:46;;;;;;;11.30;7.65;;;;;;;16.33;83.25;99503.97;5251328;33;33877;-88
2023/04/24 08:47:50;;;;;;;9.25;7.37;;;;;;;16.74;79.69;99510.28;5248788;33;33887;-87
2023/04/24 08:50:53;;;;;;;11.70;7.05;;;;;;;16.93;76.97;99502.00;5254842;33;34381;-88
2023/04/24 08:53:57;;;;;;;11.05;7.57;;;;;;;16.95;74.90;99508.03;5271018;33;33817;-87
2023/04/24 08:57:03;;;;;;;10.35;7.30;;;;;;;17.07;75.27;99497.13;5274168;33;33826;-88
2023/04/24 09:00:07;;;;;;;11.02;7.70;;;;;;;17.43;72.86;99496.72;5255420;33;33418;-88
2023/04/24 09:03:17;;;;;;;12.02;7.47;;;;;;;17.60;73.27;99498.63;5258164;33;34016;-88
2023/04/24 09:06:21;;;;;;;10.02;7.45;;;;;;;17.43;71.74;99495.88;5259139;33;34191;-87
2023/04/24 09:09:25;;;;;;;9.98;7.75;;;;;;;17.69;71.89;99489.00;5261655;33;33947;-88
2023/04/24 09:12:28;;;;;;;10.75;7.93;;;;;;;17.33;73.94;99488.38;5272868;33;33829;-87
2023/04/24 09:15:31;;;;;;;8.07;6.85;;;;;;;17.67;72.51;99491.16;5250234;33;33444;-87
2023/04/24 09:18:37;;;;;;;10.00;7.53;;;;;;;18.21;69.92;99486.03;5259271;33;34271;-88
2023/04/24 09:21:42;;;;;;;9.05;6.60;;;;;;;18.56;69.26;99487.62;5246477;33;35089;-87
2023/04/24 09:24:47;;;;;;;9.07;7.05;;;;;;;19.08;66.19;99483.66;5243213;33;33965;-87
2023/04/24 09:27:54;;;;;;;9.32;6.82;;;;;;;19.16;66.97;99483.19;5242847;33;34926;-87
2023/04/24 09:31:23;;;;;;;8.43;5.72;;;;;;;19.35;62.30;99470.84;5269964;33;35134;-88
2023/04/24 09:34:27;;;;;;;8.50;5.63;;;;;;;19.48;59.13;99469.63;5253253;33;34306;-87
2023/04/24 09:37:30;;;;;;;7.20;5.30;;;;;;;19.73;57.53;99460.84;5260650;33;33728;-87
2023/04/24 09:40:34;;;;;;;7.37;5.40;;;;;;;19.77;56.21;99458.41;5260521;33;34058;-87
2023/04/24 09:43:37;;;;;;;6.78;5.22;;;;;;;19.63;57.78;99453.38;5272943;33;33873;-87
2023/04/24 09:46:41;;;;;;;6.22;5.12;;;;;;;19.67;56.25;99448.25;5252453;33;34132;-89
2023/04/24 09:49:44;;;;;;;8.35;5.72;;;;;;;19.51;56.03;99460.91;5256948;33;35452;-91
2023/04/24 09:53:01;;;;;;;7.40;5.75;;;;;;;19.46;57.69;99452.69;5254155;33;34337;-91
2023/04/24 09:56:09;;;;;;;6.78;5.30;;;;;;;19.62;58.66;99454.44;5257452;33;33875;-88
2023/04/24 09:59:14;;;;;;;6.78;5.15;;;;;;;20.27;56.29;99440.72;5256210;33;33864;-88
2023/04/24 10:02:19;;;;;;;5.50;4.55;;;;;;;20.46;56.25;99435.66;5262131;33;34711;-89
2023/04/24 10:05:31;;;;;;;8.57;5.53;;;;;;;20.60;54.95;99436.84;5272226;33;34681;-88
2023/04/24 10:08:35;;;;;;;5.82;4.87;;;;;;;20.15;54.62;99441.78;5272672;33;33527;-88
2023/04/24 10:11:41;;;;;;;7.37;4.68;;;;;;;20.17;53.04;99441.50;5246261;33;34608;-89
2023/04/24 10:14:46;;;;;;;8.63;4.72;;;;;;;20.51;52.54;99441.16;5259902;33;34393;-86
2023/04/24 10:17:54;;;;;;;5.32;4.45;;;;;;;20.52;52.54;99443.63;5254723;33;33350;-88
2023/04/24 10:20:59;;;;;;;6.05;4.60;;;;;;;20.53;53.01;99442.56;5242440;33;33763;-86
2023/04/24 10:24:04;;;;;;;5.90;4.40;;;;;;;20.18;53.64;99451.34;5258673;33;34092;-86
2023/04/24 10:27:09;;;;;;;5.78;4.85;;;;;;;20.22;53.92;99427.06;5256214;33;33992;-86
2023/04/24 10:30:12;;;;;;;5.55;4.57;;;;;;;20.21;53.05;99428.13;5243807;33;33334;-86
2023/04/24 10:33:16;;;;;;;6.32;4.82;;;;;;;20.27;54.43;99432.53;5254434;33;33911;-86
2023/04/24 10:36:23;;;;;;;8.25;5.47;;;;;;;20.32;54.30;99425.19;5257942;33;33666;-86
2023/04/24 10:39:26;;;;;;;10.80;5.50;;;;;;;20.52;54.35;99427.22;5250894;33;34895;-86
2023/04/24 10:42:30;;;;;;;6.68;5.28;;;;;;;20.44;53.83;99427.69;5264791;33;33624;-86
2023/04/24 10:45:33;;;;;;;6.80;5.00;;;;;;;20.37;53.07;99421.66;5260158;33;33727;-86
2023/04/24 10:48:43;;;;;;;6.95;5.15;;;;;;;20.36;52.28;99422.75;5273858;33;34062;-86
2023/04/24 10:51:50;;;;;;;;;;;;;;;20.12;55.17;99423.19;5260379;33;272118;-86
2023/04/24 10:54:57;;;;;;;9.20;5.53;;;;;;;20.09;56.69;99423.69;5260255;33;34664;-87
2023/04/24 10:58:03;;;;;;;7.90;5.62;;;;;;;19.68;56.47;99433.50;5257728;33;34067;-87
2023/04/24 11:01:07;;;;;;;8.60;5.90;;;;;;;19.66;57.82;99424.75;5244066;33;34909;-87
2023/04/24 11:04:10;;;;;;;9.70;6.00;;;;;;;19.98;55.81;99416.53;5253748;33;33508;-88
2023/04/24 11:07:14;;;;;;;8.65;6.10;;;;;;;20.25;54.49;99419.16;5274391;33;34225;-87
2023/04/24 11:10:28;;;;;;;11.27;7.30;;;;;;;20.36;55.55;99417.28;5290210;33;35313;-88
2023/04/24 11:13:56;;;;;;;9.40;6.80;;;;;;;19.94;56.27;99416.22;5260035;33;34558;-88
2023/04/24 11:17:00;;;;;;;9.73;6.72;;;;;;;19.68;58.71;99423.41;5266589;33;34231;-88
2023/04/24 11:20:06;;;;;;;9.60;6.40;;;;;;;19.67;58.57;99405.38;5251860;33;33436;-86
2023/04/24 11:23:36;;;;;;;8.35;5.90;;;;;;;19.91;57.65;99405.00;5254530;33;33853;-87
2023/04/24 11:26:42;;;;;;;8.75;6.47;;;;;;;20.55;56.30;99404.00;5270375;33;34040;-87
2023/04/24 11:29:57;;;;;;;8.57;6.10;;;;;;;21.19;54.96;99408.28;5262853;33;35411;-88
2023/04/24 11:33:05;;;;;;;9.73;6.45;;;;;;;21.52;52.71;99405.03;5269530;33;33697;-89
2023/04/24 11:36:08;;;;;;;8.20;6.30;;;;;;;21.19;53.23;99406.37;5261474;33;34751;-89
2023/04/24 11:39:14;;;;;;;8.38;6.18;;;;;;;20.99;54.24;99392.66;5248058;33;34182;-88
2023/04/24 11:42:18;;;;;;;8.77;6.28;;;;;;;20.92;53.92;99395.66;5269463;33;33923;-89
2023/04/24 11:45:25;;;;;;;8.85;6.60;;;;;;;21.35;54.55;99396.25;5269037;33;33829;-88
2023/04/24 11:48:28;;;;;;;8.57;6.53;;;;;;;21.41;53.07;99395.22;5256971;33;34914;-87
2023/04/24 11:51:31;;;;;;;10.38;7.25;;;;;;;21.37;54.55;99385.06;5232484;33;33794;-87
2023/04/24 11:54:52;;;;;;;12.18;6.90;;;;;;;21.25;55.22;99385.28;5251369;33;33943;-87
2023/04/24 11:57:59;;;;;;;11.43;7.40;;;;;;;20.90;55.39;99384.16;5261173;33;34848;-87
2023/04/24 12:01:03;;;;;;;7.87;6.57;;;;;;;21.21;53.80;99384.22;5273499;33;33521;-87
2023/04/24 12:04:06;;;;;;;11.25;6.95;;;;;;;22.12;51.90;99386.06;5273674;33;33327;-87
2023/04/24 12:07:09;;;;;;;9.73;7.25;;;;;;;22.06;51.03;99361.69;5261275;33;33557;-90
2023/04/24 12:10:12;;;;;;;10.70;7.50;;;;;;;21.31;53.96;99361.47;5260726;33;35126;-92
2023/04/24 12:13:15;;;;;;;11.80;7.65;;;;;;;21.02;54.82;99357.34;5267376;33;33871;-92
2023/04/24 12:16:18;;;;;;;10.23;7.53;;;;;;;20.59;56.92;99354.00;5249441;33;34171;-92
2023/04/24 12:19:22;;;;;;;10.88;7.57;;;;;;;20.11;57.53;99350.47;5255765;33;33895;-88
2023/04/24 12:22:25;;;;;;;12.52;8.10;;;;;;;19.66;59.21;99338.19;5243046;33;33779;-88
2023/04/24 12:25:30;;;;;;;10.93;7.50;;;;;;;18.90;62.98;99348.47;5255952;33;34709;-88
2023/04/24 12:28:38;;;;;;;10.48;7.22;;;;;;;18.69;65.71;99345.50;5252071;33;34673;-88
2023/04/24 12:31:41;;;;;;;11.32;7.07;;;;;;;18.62;65.03;99342.12;5248558;33;34282;-87
2023/04/24 12:34:44;;;;;;;11.77;6.37;;;;;;;18.59;64.60;99331.75;5231190;33;33907;-87
2023/04/24 12:37:47;;;;;;;11.00;6.95;;;;;;;18.53;63.97;99343.66;5242240;33;33700;-87
2023/04/24 12:41:05;;;;;;;11.65;7.15;;;;;;;18.29;65.58;99335.75;5242743;33;33990;-87
2023/04/24 12:44:10;;;;;;;10.75;7.62;;;;;;;18.06;68.13;99325.94;5253407;33;34310;-87
2023/04/24 12:47:13;;;;;;;10.52;7.57;;;;;;;17.87;70.07;99321.84;5254957;33;33726;-87
2023/04/24 12:50:17;;;;;;;9.00;6.47;;;;;;;17.85;70.70;99326.75;5253506;33;33810;-87
2023/04/24 12:53:19;;;;;;;12.20;7.32;;;;;;;17.64;71.61;99317.44;5258437;33;34410;-87
2023/04/24 12:56:23;;;;;;;9.13;6.20;;;;;;;17.65;73.11;99316.38;5261932;33;33676;-87
2023/04/24 12:59:26;;;;;;;9.23;6.57;;;;;;;17.72;71.97;99303.38;5273056;33;33773;-87
2023/04/24 13:02:30;;;;;;;9.15;6.37;;;;;;;17.68;73.69;99302.25;5264375;33;34650;-87
2023/04/24 13:05:34;;;;;;;11.52;6.45;;;;;;;17.61;74.27;99309.78;5241499;33;33538;-87
2023/04/24 13:08:37;;;;;;;11.65;6.62;;;;;;;17.39;76.80;99298.81;5246294;33;34564;-87
2023/04/24 13:11:40;;;;;;;11.73;6.25;;;;;;;17.39;77.77;99294.22;5264246;33;33463;-87
2023/04/24 13:14:43;;;;;;;7.70;5.53;;;;;;;17.34;79.46;99293.31;5258069;33;34856;-87
2023/04/24 13:17:46;;;;;;;7.30;5.43;;;;;;;17.48;81.00;99286.44;5246621;33;33739;-87
2023/04/24 13:20:49;;;;;;;10.32;5.32;;;;;;;17.57;78.73;99295.00;5245502;33;33594;-87
2023/04/24 13:23:52;;;;;;;6.43;4.57;;;;;;;17.74;77.33;99287.63;5253355;33;34012;-87
2023/04/24 13:26:56;;;;;;;7.00;5.18;;;;;;;18.08;76.02;99280.22;5270145;33;35286;-87
2023/04/24 13:29:59;;;;;;;6.87;4.18;;;;;;;18.04;76.44;99281.78;5255162;33;33826;-87
2023/04/24 13:33:02;;;;;;;5.95;4.10;;;;;;;17.89;77.32;99278.88;5264114;33;33416;-87
2023/04/24 13:36:06;;;;;;;5.72;4.12;;;;;;;17.72;78.69;99273.44;5256360;33;34794;-87
2023/04/24 13:39:09;;;;;;;5.00;3.75;;;;;;;17.53;80.32;99277.53;5265993;33;33842;-88
2023/04/24 13:42:12;;;;;;;5.75;3.20;;;;;;;17.33;80.96;99265.28;5260164;33;34849;-87
2023/04/24 13:45:15;;;;;;;8.07;3.90;;;;;;;17.08;81.51;99273.88;5268701;33;33639;-87
2023/04/24 13:48:27;;;;;;;5.20;3.62;;;;;;;16.90;83.42;99284.97;5271245;33;33483;-88
2023/04/24 13:51:30;;;;;;;7.62;4.32;;;;;;;16.30;90.21;99298.00;5259878;33;33533;-88
2023/04/24 13:54:33;;;;;;;8.98;4.60;;;;;;;15.34;100.00;99297.53;5273372;33;34633;-87
2023/04/24 13:57:36;;;;;;;11.57;4.75;;;;;;;14.38;100.00;99304.00;5273404;33;34030;-86
2023/04/24 14:00:40;;;;;;;8.73;4.70;;;;;;;13.88;100.00;99313.16;5271443;33;33549;-85
2023/04/24 14:03:43;;;;;;;11.77;5.18;;;;;;;13.70;100.00;99313.16;5272097;33;34064;-86
2023/04/24 14:07:07;;;;;;;10.80;5.43;;;;;;;13.64;100.00;99325.69;5265303;33;34114;-85
2023/04/24 14:10:11;;;;;;;13.48;6.30;;;;;;;13.43;100.00;99332.34;5288676;33;33078;-85
2023/04/24 14:13:15;;;;;;;10.60;6.20;;;;;;;13.29;100.00;99337.03;5264749;33;34889;-85
2023/04/24 14:16:18;;;;;;;12.10;6.22;;;;;;;13.18;100.00;99345.00;5260394;33;33722;-85
2023/04/24 14:19:21;;;;;;;15.38;7.82;;;;;;;13.11;100.00;99339.66;5272520;33;33861;-85
2023/04/24 14:22:24;;;;;;;12.75;6.93;;;;;;;13.15;100.00;99341.69;5273113;33;33555;-87
2023/04/24 14:25:27;;;;;;;10.85;6.50;;;;;;;13.14;100.00;99345.44;5273135;33;33572;-87
2023/04/24 14:28:30;;;;;;;12.35;6.30;;;;;;;13.23;100.00;99339.78;5273018;33;34250;-86
2023/04/24 14:31:33;;;;;;;12.32;6.50;;;;;;;13.39;100.00;99342.75;5272760;33;33961;-87
2023/04/24 14:34:36;;;;;;;10.60;6.18;;;;;;;13.41;100.00;99333.62;5260696;33;33612;-87
2023/04/24 14:37:40;;;;;;;9.05;5.68;;;;;;;13.46;100.00;99334.62;5273648;33;33948;-87
2023/04/24 14:40:44;;;;;;;11.40;6.12;;;;;;;13.47;100.00;99340.84;5262258;33;33939;-87
2023/04/24 14:44:06;;;;;;;10.40;6.22;;;;;;;13.62;100.00;99344.03;5274226;33;34085;-87
2023/04/24 14:47:09;;;;;;;9.13;6.00;;;;;;;13.79;100.00;99346.97;5273563;33;34217;-87
2023/04/24 14:50:13;;;;;;;10.52;6.10;;;;;;;13.93;100.00;99348.50;5274473;33;33591;-85
2023/04/24 14:53:16;;;;;;;13.88;7.05;;;;;;;14.02;100.00;99344.44;5265323;33;34143;-85
2023/04/24 14:56:19;;;;;;;9.50;6.65;;;;;;;14.05;100.00;99343.16;5282865;33;35276;-85
2023/04/24 14:59:22;;;;;;;10.20;6.62;;;;;;;14.06;100.00;99344.78;5262235;33;35315;-85
2023/04/24 15:02:24;;;;;;;10.63;7.12;;;;;;;14.17;100.00;99352.16;5263115;33;33921;-85
2023/04/24 15:05:28;;;;;;;9.77;6.53;;;;;;;14.19;100.00;99343.84;5261274;33;34356;-85
2023/04/24 15:08:31;;;;;;;9.52;6.40;;;;;;;14.14;100.00;99346.37;5274430;33;34911;-87
2023/04/24 15:11:34;;;;;;;9.10;6.45;;;;;;;14.11;100.00;99344.97;5263801;33;33942;-87
2023/04/24 15:14:37;;;;;;;10.50;7.28;;;;;;;14.24;100.00;99338.53;5252803;33;34146;-85
2023/04/24 15:17:39;;;;;;;12.52;7.25;;;;;;;14.35;100.00;99335.06;5331029;28;33936;-85
2023/04/24 15:20:43;;;;;;;11.48;7.35;;;;;;;14.55;100.00;99334.03;5327931;33;34229;-85
2023/04/24 15:23:46;;;;;;;11.05;7.22;;;;;;;14.64;100.00;99330.75;5331193;33;33972;-85
2023/04/24 15:26:49;;;;;;;9.25;6.53;;;;;;;14.73;100.00;99337.50;5313589;33;34265;-85
2023/04/24 15:29:53;;;;;;;8.98;6.15;;;;;;;14.77;100.00;99328.91;5313032;33;34073;-85
2023/04/24 15:32:56;;;;;;;9.05;5.93;;;;;;;14.79;100.00;99332.22;5324653;33;33951;-85
2023/04/24 15:35:59;;;;;;;6.95;5.40;;;;;;;14.76;100.00;99332.69;5312435;33;33442;-85
2023/04/24 15:39:02;;;;;;;8.32;5.60;;;;;;;14.91;100.00;99338.50;5312237;33;33923;-85
2023/04/24 15:42:08;;;;;;;6.35;5.35;;;;;;;15.26;100.00;99330.44;5325244;33;33911;-85
2023/04/24 15:45:12;;;;;;;7.68;5.25;;;;;;;15.51;100.00;99338.34;5325969;33;33576;-85
2023/04/24 15:48:15;;;;;;;7.43;5.35;;;;;;;15.51;100.00;99343.78;5327863;33;34795;-85
2023/04/24 15:51:17;;;;;;;6.70;5.15;;;;;;;15.56;100.00;99341.19;5326474;33;33877;-85
2023/04/24 15:54:20;;;;;;;6.50;4.12;;;;;;;15.42;100.00;99342.50;5314660;33;35412;-88
2023/04/24 15:57:23;;;;;;;5.60;4.40;;;;;;;15.36;100.00;99346.97;5325600;33;35370;-88
2023/04/24 16:00:32;;;;;;;5.97;4.30;;;;;;;15.19;100.00;99346.81;5329307;33;35282;-88
2023/04/24 16:32:53;;;;;;;7.00;4.57;;;;;;;14.07;100.00;99336.47;5803424;27;20168;-87
2023/04/24 16:35:56;;;;;;;6.15;4.78;;;;;;;14.00;100.00;99337.59;5320543;33;34704;-87
